Time;durP1;ratioP1;P1;durP2;ratioP2;P2;SDS_P1;SDS_P2;PMS_P1;PMS_P2;Temp;Humidity;BMP_temperature;BMP_pressure;BME280_temperature;BME280_humidity;BME280_pressure;Samples;Min_cycle;Max_cycle;Signal;HPM_P1;HPM_P2
2023/06/08 00:00:39;;;;;;;;;16.00;13.67;;;;;20.64;54.76;101410.78;5057255;28;45730;-79
2023/06/08 00:03:05;;;;;;;;;19.67;18.00;;;;;20.64;56.27;101410.78;5058030;28;46019;-79
2023/06/08 00:05:31;;;;;;;;;19.33;17.67;;;;;20.63;55.12;101414.41;5070906;28;45597;-79
2023/06/08 00:07:57;;;;;;;;;17.00;16.33;;;;;20.57;56.40;101403.31;5055121;28;45761;-78
2023/06/08 00:10:22;;;;;;;;;17.00;17.00;;;;;20.60;56.80;101411.97;5058299;28;45470;-79
2023/06/08 00:12:48;;;;;;;;;14.00;12.67;;;;;20.55;56.09;101413.34;5064452;28;45504;-79
2023/06/08 00:15:13;;;;;;;;;17.00;16.33;;;;;20.48;56.58;101394.16;5056179;28;50795;-78
2023/06/08 00:17:39;;;;;;;;;15.67;13.33;;;;;20.48;56.15;101398.66;5048894;28;45802;-79
2023/06/08 00:20:08;;;;;;;;;16.00;16.00;;;;;20.42;56.55;101404.53;5038009;28;45416;-79
2023/06/08 00:22:36;;;;;;;;;15.33;13.67;;;;;20.35;57.37;101390.72;5061769;28;46210;-79
2023/06/08 00:25:05;;;;;;;;;15.67;14.33;;;;;20.30;56.94;101381.28;5070251;28;45755;-78
2023/06/08 00:27:30;;;;;;;;;15.00;15.00;;;;;20.24;57.83;101383.47;5035659;28;45463;-78
2023/06/08 00:29:55;;;;;;;;;16.33;15.33;;;;;20.30;59.40;101398.25;5060109;28;45335;-78
2023/06/08 00:32:21;;;;;;;;;21.00;19.67;;;;;19.96;58.18;101340.91;5034207;28;46048;-78
2023/06/08 00:34:46;;;;;;;;;18.67;15.33;;;;;20.23;58.50;101392.47;5041813;28;45633;-79
2023/06/08 00:37:12;;;;;;;;;15.67;15.67;;;;;20.19;59.19;101390.13;5036241;28;45979;-78
2023/06/08 00:39:37;;;;;;;;;13.00;13.00;;;;;20.09;58.17;101373.88;5039473;28;54358;-79
2023/06/08 00:42:03;;;;;;;;;15.33;14.00;;;;;20.11;58.15;101384.53;5041849;28;46704;-79
2023/06/08 00:44:28;;;;;;;;;16.33;16.33;;;;;20.12;59.19;101391.63;5057625;28;45697;-78
2023/06/08 00:46:54;;;;;;;;;14.67;14.67;;;;;20.08;58.69;101387.44;5035205;28;48855;-78
2023/06/08 00:49:20;;;;;;;;;14.67;14.67;;;;;20.06;60.21;101392.06;5049806;28;45377;-78
2023/06/08 00:51:46;;;;;;;;;16.33;14.00;;;;;19.93;60.75;101370.69;5033536;28;47032;-78
2023/06/08 00:54:12;;;;;;;;;15.00;13.33;;;;;19.93;59.83;101368.00;5056060;28;45430;-78
2023/06/08 00:56:40;;;;;;;;;17.67;17.67;;;;;19.95;61.49;101376.81;5063216;28;45423;-78
2023/06/08 00:59:09;;;;;;;;;15.00;15.00;;;;;19.94;60.78;101374.22;5037028;28;45405;-78
2023/06/08 01:01:35;;;;;;;;;17.33;16.33;;;;;19.87;62.09;101364.94;5065020;28;46469;-78
2023/06/08 01:04:09;;;;;;;;;15.67;15.67;;;;;19.77;61.93;101359.41;5043030;28;45823;-78
2023/06/08 01:06:39;;;;;;;;;15.67;15.67;;;;;19.81;61.84;101370.78;5039896;28;46085;-77
2023/06/08 01:09:26;;;;;;;;;18.33;18.33;;;;;19.78;62.29;101369.19;5043364;28;45535;-78
2023/06/08 01:12:47;;;;;;;;;16.67;16.67;;;;;19.75;61.70;101369.44;5033563;28;45657;-78
2023/06/08 01:15:12;;;;;;;;;19.00;18.00;;;;;19.73;63.36;101371.38;4995182;28;45501;-79
2023/06/08 01:17:40;;;;;;;;;17.67;17.00;;;;;19.71;63.82;101371.47;5043706;28;45317;-78
2023/06/08 01:20:49;;;;;;;;;22.00;19.33;;;;;19.66;63.38;101365.63;5061303;28;45731;-78
2023/06/08 01:24:02;;;;;;;;;17.67;16.00;;;;;19.63;62.17;101365.00;5039060;28;48187;-78
2023/06/08 01:26:28;;;;;;;;;21.00;18.00;;;;;19.53;63.39;101354.09;5055049;28;45388;-79
2023/06/08 01:28:55;;;;;;;;;18.00;18.00;;;;;19.55;63.84;101375.44;5065228;28;45354;-79
2023/06/08 01:31:21;;;;;;;;;20.33;15.33;;;;;19.51;63.12;101366.75;5034702;28;45762;-79
2023/06/08 01:33:46;;;;;;;;;17.00;17.00;;;;;19.52;63.89;101375.69;5035602;28;45556;-78
2023/06/08 01:36:25;;;;;;;;;19.67;18.00;;;;;19.50;63.86;101372.25;5037464;28;45383;-78
2023/06/08 01:39:05;;;;;;;;;18.00;18.00;;;;;19.49;64.30;101376.78;5051988;28;45478;-79
2023/06/08 01:41:36;;;;;;;;;18.33;17.33;;;;;19.46;64.27;101376.13;5043515;28;45534;-77
2023/06/08 01:44:04;;;;;;;;;18.33;17.67;;;;;19.44;65.65;101376.25;5050001;28;45349;-78
2023/06/08 01:46:31;;;;;;;;;18.33;18.33;;;;;19.41;64.63;101373.78;5058104;28;45361;-78
2023/06/08 01:48:58;;;;;;;;;17.00;16.33;;;;;19.35;64.73;101379.59;5058191;28;45481;-78
2023/06/08 01:51:25;;;;;;;;;19.67;19.33;;;;;19.27;65.70;101370.41;5066510;28;45313;-79
2023/06/08 01:54:02;;;;;;;;;18.67;16.00;;;;;19.19;65.32;101368.28;5057967;28;45526;-78
2023/06/08 01:56:31;;;;;;;;;20.33;20.00;;;;;19.21;65.73;101375.25;5055425;28;45299;-78
2023/06/08 01:58:57;;;;;;;;;23.00;21.33;;;;;19.18;66.11;101375.47;5065502;28;45368;-78
2023/06/08 02:01:22;;;;;;;;;21.67;20.33;;;;;19.15;65.44;101370.34;5036716;28;45435;-78
2023/06/08 02:03:47;;;;;;;;;14.00;13.33;;;;;19.16;66.23;101376.56;5048207;28;47176;-78
2023/06/08 02:06:13;;;;;;;;;21.33;20.00;;;;;19.20;66.51;101388.78;5069263;28;45721;-78
2023/06/08 02:08:38;;;;;;;;;20.00;19.33;;;;;19.09;68.00;101383.34;5067262;28;48033;-78
2023/06/08 02:11:04;;;;;;;;;20.33;20.33;;;;;19.13;66.85;101388.38;5066452;28;45395;-78
2023/06/08 02:13:30;;;;;;;;;18.67;18.00;;;;;19.10;67.25;101391.28;5051332;28;46833;-78
2023/06/08 02:15:55;;;;;;;;;21.00;19.67;;;;;19.09;67.46;101389.56;5067023;28;45450;-78
2023/06/08 02:18:21;;;;;;;;;22.33;20.00;;;;;19.06;68.51;101384.44;5051984;28;45431;-78
2023/06/08 02:20:46;;;;;;;;;21.67;19.00;;;;;18.97;67.17;101378.88;5066719;28;45473;-77
2023/06/08 02:23:12;;;;;;;;;18.33;17.00;;;;;19.01;69.24;101391.09;5039849;28;46672;-78
2023/06/08 02:25:37;;;;;;;;;21.67;18.00;;;;;18.86;67.54;101363.56;5045754;28;45396;-78
2023/06/08 02:28:03;;;;;;;;;21.67;21.33;;;;;18.95;67.81;101380.81;5054691;28;45463;-78
2023/06/08 02:30:28;;;;;;;;;17.33;17.33;;;;;18.91;68.79;101380.19;5069339;28;45479;-79
2023/06/08 02:32:53;;;;;;;;;19.00;18.00;;;;;18.89;67.61;101379.44;5056511;28;45613;-78
2023/06/08 02:35:19;;;;;;;;;24.67;20.00;;;;;18.76;68.60;101357.16;5060430;28;45634;-78
2023/06/08 02:37:44;;;;;;;;;23.00;21.33;;;;;18.86;69.41;101379.66;5058124;28;45392;-78
2023/06/08 02:40:10;;;;;;;;;23.67;21.67;;;;;18.85;69.11;101385.16;5064731;28;45446;-78
2023/06/08 02:42:35;;;;;;;;;19.67;18.67;;;;;18.74;69.76;101375.19;5043121;28;45649;-78
2023/06/08 02:45:01;;;;;;;;;19.33;18.00;;;;;18.65;69.72;101363.28;5055287;28;46168;-78
2023/06/08 02:47:26;;;;;;;;;20.33;18.33;;;;;18.76;69.99;101386.66;5059631;28;45341;-79
2023/06/08 02:49:51;;;;;;;;;21.00;21.00;;;;;18.65;70.71;101365.97;5059116;28;45261;-79
2023/06/08 02:52:17;;;;;;;;;18.00;18.00;;;;;18.66;71.27;101373.06;5049558;28;47826;-79
2023/06/08 02:54:42;;;;;;;;;22.00;22.00;;;;;18.68;70.86;101375.63;5029160;28;45356;-78
2023/06/08 02:57:07;;;;;;;;;21.00;20.00;;;;;18.63;70.98;101369.72;5068607;28;45330;-76
2023/06/08 02:59:33;;;;;;;;;20.00;19.33;;;;;18.56;69.63;101365.78;5075447;28;51965;-78
2023/06/08 03:01:58;;;;;;;;;22.00;20.00;;;;;18.57;69.86;101356.78;5048004;28;45373;-78
2023/06/08 03:04:25;;;;;;;;;21.33;18.33;;;;;18.61;70.77;101369.84;5056562;28;45315;-77
2023/06/08 03:06:54;;;;;;;;;21.67;21.67;;;;;18.50;69.14;101355.50;5057017;28;45971;-76
2023/06/08 03:09:24;;;;;;;;;22.33;20.33;;;;;18.58;69.99;101371.91;5052704;28;45482;-78
2023/06/08 03:11:50;;;;;;;;;22.67;21.00;;;;;18.57;69.27;101373.72;5042679;28;45683;-77
2023/06/08 03:14:18;;;;;;;;;20.67;19.00;;;;;18.56;70.61;101373.81;5073499;28;45285;-77
2023/06/08 03:16:48;;;;;;;;;18.00;17.33;;;;;18.49;70.31;101362.63;5053085;28;45470;-77
2023/06/08 03:19:14;;;;;;;;;21.00;18.00;;;;;18.42;68.94;101366.72;5060809;28;45297;-77
2023/06/08 03:21:41;;;;;;;;;22.67;22.00;;;;;18.43;68.56;101365.75;5045992;28;46102;-77
2023/06/08 03:24:08;;;;;;;;;20.00;20.00;;;;;18.43;69.96;101367.56;5064028;28;45499;-77
2023/06/08 03:26:33;;;;;;;;;20.67;19.67;;;;;18.44;69.70;101369.31;5058399;28;45556;-77
2023/06/08 03:28:58;;;;;;;;;21.00;20.00;;;;;18.30;70.41;101347.97;5033164;28;46241;-78
2023/06/08 03:31:24;;;;;;;;;23.33;23.33;;;;;18.33;69.96;101356.66;5063901;28;45475;-77
2023/06/08 03:33:49;;;;;;;;;26.67;23.67;;;;;18.35;71.06;101353.88;5068335;28;45340;-76
2023/06/08 03:36:15;;;;;;;;;24.00;24.00;;;;;18.37;71.02;101362.66;5055235;28;45969;-76
2023/06/08 03:38:40;;;;;;;;;21.00;20.67;;;;;18.35;69.98;101361.91;5057717;28;45532;-77
2023/06/08 03:41:06;;;;;;;;;22.75;22.00;;;;;18.33;70.38;101369.19;5061103;28;45625;-76
2023/06/08 03:43:31;;;;;;;;;21.33;20.33;;;;;18.28;70.23;101363.31;5065274;28;45430;-77
2023/06/08 03:45:56;;;;;;;;;23.00;23.00;;;;;18.29;70.47;101368.53;5078483;28;45343;-77
2023/06/08 03:48:22;;;;;;;;;24.33;23.00;;;;;18.27;72.16;101370.47;5044188;28;45473;-77
2023/06/08 03:50:47;;;;;;;;;26.67;26.00;;;;;18.24;72.79;101362.66;5073950;28;45872;-76
2023/06/08 03:53:13;;;;;;;;;26.00;23.00;;;;;18.22;71.69;101372.66;5061601;28;45473;-77
2023/06/08 03:55:38;;;;;;;;;26.33;23.33;;;;;18.19;71.74;101354.94;5040666;28;45371;-76
2023/06/08 03:58:04;;;;;;;;;25.67;25.33;;;;;18.17;71.53;101359.56;5061600;28;45458;-77
2023/06/08 04:00:29;;;;;;;;;24.00;21.33;;;;;18.16;72.57;101360.53;5060907;28;46010;-76
2023/06/08 04:02:56;;;;;;;;;22.67;21.33;;;;;18.12;72.68;101352.81;5072640;28;45376;-76
2023/06/08 04:05:22;;;;;;;;;24.00;24.00;;;;;18.06;73.35;101343.38;5069116;28;45396;-76
2023/06/08 04:07:50;;;;;;;;;25.33;25.00;;;;;18.02;74.25;101339.22;5080167;28;45298;-77
2023/06/08 04:10:16;;;;;;;;;24.67;23.33;;;;;18.01;73.34;101340.19;5062424;28;45610;-76
2023/06/08 04:12:41;;;;;;;;;25.33;24.33;;;;;18.10;74.54;101355.59;5054729;28;45305;-77
2023/06/08 04:15:08;;;;;;;;;27.00;26.33;;;;;18.05;74.91;101349.72;5042428;28;45678;-76
2023/06/08 04:17:33;;;;;;;;;30.00;27.33;;;;;18.02;75.43;101349.06;5060546;28;45343;-77
2023/06/08 04:19:58;;;;;;;;;28.00;27.00;;;;;18.10;74.90;101357.41;5067698;28;46064;-80
2023/06/08 04:22:24;;;;;;;;;28.00;25.33;;;;;18.08;74.50;101359.34;5064952;28;45259;-77
2023/06/08 04:24:49;;;;;;;;;24.00;23.67;;;;;17.96;75.63;101342.34;5068037;28;45459;-77
2023/06/08 04:27:16;;;;;;;;;29.50;26.00;;;;;18.08;76.71;101362.03;5055696;28;45587;-77
2023/06/08 04:29:41;;;;;;;;;25.33;25.00;;;;;18.07;76.61;101354.94;5080114;28;45429;-77
2023/06/08 04:32:07;;;;;;;;;28.67;28.00;;;;;17.93;77.91;101336.34;5054480;28;46143;-78
2023/06/08 04:34:33;;;;;;;;;32.50;29.25;;;;;17.98;77.22;101344.88;5073534;28;45471;-78
2023/06/08 04:36:58;;;;;;;;;36.50;30.00;;;;;17.91;77.29;101327.53;5043976;28;45636;-78
2023/06/08 04:39:24;;;;;;;;;31.00;29.50;;;;;18.01;77.98;101350.88;5059642;28;47569;-77
2023/06/08 04:41:49;;;;;;;;;30.50;25.00;;;;;17.93;78.14;101336.34;5060637;28;45352;-78
2023/06/08 04:44:20;;;;;;;;;31.00;29.00;;;;;18.06;77.77;101354.09;5080146;28;45592;-77
2023/06/08 04:46:46;;;;;;;;;29.50;28.50;;;;;18.05;78.90;101340.81;5044218;28;45928;-77
2023/06/08 04:49:12;;;;;;;;;31.00;30.00;;;;;18.11;79.17;101351.09;5052746;28;46222;-78
2023/06/08 04:51:40;;;;;;;;;30.25;30.00;;;;;18.11;77.53;101348.44;5057652;28;45428;-77
2023/06/08 04:54:13;;;;;;;;;32.50;29.75;;;;;18.21;79.07;101353.03;5064239;28;45384;-78
2023/06/08 04:56:42;;;;;;;;;39.00;30.00;;;;;18.13;77.71;101336.63;5070943;28;45387;-77
2023/06/08 04:59:08;;;;;;;;;31.00;28.00;;;;;18.18;78.32;101341.69;5079463;28;45446;-78
2023/06/08 05:01:34;;;;;;;;;37.00;32.00;;;;;18.14;78.14;101327.66;5042505;28;45488;-78
2023/06/08 05:04:00;;;;;;;;;33.75;30.50;;;;;18.32;79.13;101352.28;5051132;28;45734;-78
2023/06/08 05:06:25;;;;;;;;;36.75;31.50;;;;;18.32;78.61;101354.09;5061064;28;45339;-77
2023/06/08 05:08:50;;;;;;;;;29.50;27.75;;;;;18.33;79.78;101348.63;5060816;28;45428;-78
2023/06/08 05:11:16;;;;;;;;;28.75;28.00;;;;;18.41;78.86;101358.81;5060530;28;50696;-77
2023/06/08 05:13:41;;;;;;;;;30.25;29.00;;;;;18.31;79.34;101345.22;5058331;28;45534;-77
2023/06/08 05:16:06;;;;;;;;;32.00;27.25;;;;;18.39;79.52;101355.38;5050753;28;45531;-78
2023/06/08 05:18:32;;;;;;;;;39.75;33.75;;;;;18.54;79.70;101357.88;5041704;28;46990;-77
2023/06/08 05:20:57;;;;;;;;;36.25;32.25;;;;;18.50;79.53;101347.47;5070917;28;45447;-77
2023/06/08 05:23:22;;;;;;;;;43.50;33.50;;;;;18.66;79.02;101369.50;5056837;28;45384;-77
2023/06/08 05:25:48;;;;;;;;;32.00;30.00;;;;;18.66;78.17;101353.44;5047428;28;48311;-77
2023/06/08 05:28:13;;;;;;;;;36.50;30.50;;;;;18.59;78.98;101336.94;5066358;28;45828;-78
2023/06/08 05:30:38;;;;;;;;;37.00;32.25;;;;;18.81;79.01;101357.72;5056557;28;45280;-78
2023/06/08 05:33:04;;;;;;;;;37.75;33.50;;;;;18.87;78.08;101351.91;5064895;28;45409;-76
2023/06/08 05:35:29;;;;;;;;;35.00;31.50;;;;;18.81;78.86;101333.59;5045737;28;45451;-77
2023/06/08 05:37:55;;;;;;;;;41.25;34.25;;;;;18.93;78.56;101342.53;5051785;28;45438;-77
2023/06/08 05:40:21;;;;;;;;;40.25;33.00;;;;;19.10;78.78;101353.75;5048740;28;44772;-79
2023/06/08 05:42:46;;;;;;;;;43.75;35.50;;;;;19.14;77.42;101346.34;5068633;28;45423;-77
2023/06/08 05:45:12;;;;;;;;;37.00;32.25;;;;;19.14;77.33;101338.28;5080295;28;45526;-77
2023/06/08 05:47:38;;;;;;;;;42.00;34.25;;;;;19.25;77.13;101341.00;5080339;28;45283;-77
2023/06/08 05:50:04;;;;;;;;;40.50;35.00;;;;;19.29;77.40;101337.13;5053045;28;45517;-76
2023/06/08 05:52:30;;;;;;;;;46.50;35.00;;;;;19.32;77.11;101326.16;5057735;28;45271;-77
2023/06/08 05:54:55;;;;;;;;;36.00;31.50;;;;;19.39;77.00;101332.78;5035480;28;45477;-77
2023/06/08 05:57:21;;;;;;;;;37.75;33.00;;;;;19.46;76.22;101354.69;5059505;28;45387;-77
2023/06/08 05:59:46;;;;;;;;;43.50;33.25;;;;;19.42;75.90;101337.09;5040765;28;45391;-77
2023/06/08 06:02:12;;;;;;;;;40.00;33.25;;;;;19.46;76.33;101328.72;5064567;28;45401;-77
2023/06/08 06:04:38;;;;;;;;;37.75;32.50;;;;;19.54;76.46;101330.78;5075251;28;45372;-76
2023/06/08 06:07:06;;;;;;;;;35.75;32.50;;;;;19.58;77.75;101326.91;5061835;28;46280;-78
2023/06/08 06:09:32;;;;;;;;;36.25;32.00;;;;;19.66;77.83;101325.38;5060431;28;45698;-79
2023/06/08 06:11:57;;;;;;;;;36.75;31.75;;;;;19.74;76.66;101330.97;5040302;28;45313;-78
2023/06/08 06:14:22;;;;;;;;;40.25;34.25;;;;;19.83;76.45;101340.16;5065358;28;45473;-78
2023/06/08 06:16:48;;;;;;;;;29.00;26.67;;;;;19.87;76.71;101343.44;5037394;28;46296;-78
2023/06/08 06:19:13;;;;;;;;;35.00;31.50;;;;;19.95;74.76;101333.84;5038736;28;45636;-78
2023/06/08 06:21:38;;;;;;;;;35.50;31.50;;;;;19.94;74.29;101340.19;5058463;28;46935;-78
2023/06/08 06:24:04;;;;;;;;;33.75;31.25;;;;;19.96;74.81;101334.72;5055027;28;45461;-79
2023/06/08 06:26:30;;;;;;;;;39.75;32.50;;;;;20.04;76.98;101332.25;5054487;28;46050;-78
2023/06/08 06:28:55;;;;;;;;;36.75;29.75;;;;;20.09;74.88;101332.78;5068178;28;45348;-78
2023/06/08 06:31:20;;;;;;;;;38.50;33.75;;;;;20.04;74.07;101308.09;5069782;28;53140;-78
2023/06/08 06:33:46;;;;;;;;;29.00;29.00;;;;;20.09;74.60;101314.81;5064206;28;45223;-78
2023/06/08 06:36:11;;;;;;;;;42.25;34.00;;;;;20.14;73.46;101322.50;5038512;28;46746;-78
2023/06/08 06:38:36;;;;;;;;;27.75;26.25;;;;;20.21;73.35;101316.53;5053472;28;55413;-78
2023/06/08 06:41:03;;;;;;;;;38.25;32.25;;;;;20.33;74.45;101324.63;5050729;28;45563;-78
2023/06/08 06:43:28;;;;;;;;;35.75;31.50;;;;;20.37;73.41;101313.53;5049322;28;45594;-78
2023/06/08 06:45:53;;;;;;;;;42.50;35.25;;;;;20.42;72.27;101299.72;5074074;28;47987;-78
2023/06/08 06:48:22;;;;;;;;;35.25;32.00;;;;;20.54;72.21;101315.72;5067878;28;45672;-78
2023/06/08 06:50:48;;;;;;;;;33.25;31.25;;;;;20.60;73.63;101303.59;5052315;28;45617;-78
2023/06/08 06:53:13;;;;;;;;;42.50;35.25;;;;;20.71;71.52;101325.94;5073588;28;45384;-78
2023/06/08 06:55:39;;;;;;;;;43.00;34.50;;;;;20.64;71.09;101318.50;5072748;28;45421;-78
2023/06/08 06:58:05;;;;;;;;;41.75;36.00;;;;;20.84;71.73;101315.06;5043618;28;45528;-79
2023/06/08 07:00:36;;;;;;;;;36.75;33.50;;;;;20.90;71.15;101314.56;5054582;28;45316;-79
2023/06/08 07:03:03;;;;;;;;;38.50;34.25;;;;;20.80;71.21;101284.03;5063674;28;45498;-79
2023/06/08 07:05:29;;;;;;;;;41.25;36.00;;;;;21.11;70.03;101323.56;5051704;28;46601;-78
2023/06/08 07:07:54;;;;;;;;;40.75;35.25;;;;;21.09;70.21;101316.56;5075080;28;45419;-79
2023/06/08 07:10:19;;;;;;;;;42.33;34.33;;;;;21.13;69.86;101296.53;5071110;28;45490;-78
2023/06/08 07:12:45;;;;;;;;;34.50;32.25;;;;;21.34;70.64;101312.72;5044259;28;45562;-78
2023/06/08 07:15:10;;;;;;;;;35.75;33.75;;;;;21.50;69.74;101324.75;5056655;28;46689;-78
2023/06/08 07:17:36;;;;;;;;;36.67;32.00;;;;;21.59;69.56;101325.81;5062419;28;45327;-78
2023/06/08 07:20:02;;;;;;;;;37.50;32.50;;;;;21.67;68.55;101332.25;5045013;28;45351;-78
2023/06/08 07:22:28;;;;;;;;;42.50;35.00;;;;;21.74;68.17;101321.81;5060299;28;45301;-78
2023/06/08 07:24:53;;;;;;;;;42.50;35.50;;;;;21.90;67.74;101329.47;5071054;28;45584;-78
2023/06/08 07:27:19;;;;;;;;;35.50;32.00;;;;;21.99;67.57;101332.22;5047360;28;45873;-78
2023/06/08 07:29:44;;;;;;;;;40.00;35.00;;;;;22.04;67.81;101319.22;5062881;28;45490;-78
2023/06/08 07:32:13;;;;;;;;;41.00;36.50;;;;;22.21;67.39;101318.59;5062313;28;54406;-78
2023/06/08 07:34:38;;;;;;;;;44.75;37.50;;;;;22.33;67.30;101319.34;5065498;28;45498;-79
2023/06/08 07:37:04;;;;;;;;;45.75;35.50;;;;;22.37;66.14;101320.78;5057463;28;45217;-78
2023/06/08 07:39:29;;;;;;;;;42.33;34.67;;;;;22.41;66.11;101313.28;5044481;28;45786;-79
2023/06/08 07:41:55;;;;;;;;;39.33;32.67;;;;;22.43;66.28;101304.06;5061156;28;56723;-78
2023/06/08 07:44:20;;;;;;;;;38.67;32.00;;;;;22.43;64.88;101296.00;5068988;28;45447;-78
2023/06/08 07:46:45;;;;;;;;;38.67;34.00;;;;;22.64;64.69;101314.81;5066684;28;45454;-79
2023/06/08 07:49:11;;;;;;;;;39.67;35.00;;;;;22.75;64.49;101312.00;5041329;28;45332;-78
2023/06/08 07:51:37;;;;;;;;;38.33;34.67;;;;;22.91;65.44;101304.22;5060705;28;45483;-78
2023/06/08 07:54:02;;;;;;;;;34.00;32.25;;;;;23.06;63.61;101302.00;5061803;28;46254;-79
2023/06/08 07:56:28;;;;;;;;;30.00;28.00;;;;;23.09;64.19;101317.91;5049576;28;45304;-79
2023/06/08 07:58:53;;;;;;;;;30.00;29.00;;;;;23.16;63.50;101303.72;5074179;28;45506;-78
2023/06/08 08:01:18;;;;;;;;;30.33;29.00;;;;;23.24;63.54;101301.16;5060373;28;45230;-78
2023/06/08 08:03:44;;;;;;;;;39.25;33.00;;;;;23.33;63.83;101316.47;5068012;28;45506;-78
2023/06/08 08:06:09;;;;;;;;;37.00;34.00;;;;;23.29;63.11;101292.63;5067472;28;45402;-78
2023/06/08 08:08:35;;;;;;;;;32.00;28.67;;;;;23.52;63.33;101310.28;5073451;28;45463;-78
2023/06/08 08:11:00;;;;;;;;;36.00;31.00;;;;;23.51;63.00;101286.09;5060217;28;45411;-78
2023/06/08 08:13:27;;;;;;;;;35.00;29.00;;;;;23.73;63.00;101302.84;5054299;28;46358;-79
2023/06/08 08:15:52;;;;;;;;;36.00;29.00;;;;;23.94;61.92;101305.38;5036374;28;45502;-78
2023/06/08 08:18:17;;;;;;;;;37.00;32.33;;;;;23.85;61.44;101290.88;5055836;28;45593;-78
2023/06/08 08:20:43;;;;;;;;;34.67;29.67;;;;;24.00;60.93;101299.38;5079890;28;50953;-78
2023/06/08 08:23:08;;;;;;;;;36.00;32.00;;;;;23.96;59.99;101294.41;5065210;28;46243;-78
2023/06/08 08:25:34;;;;;;;;;30.33;29.33;;;;;24.14;61.23;101292.69;5041920;28;45416;-79
2023/06/08 08:28:00;;;;;;;;;32.00;28.33;;;;;24.21;60.06;101289.22;5055843;28;45289;-79
2023/06/08 08:30:26;;;;;;;;;31.00;30.00;;;;;24.24;60.53;101288.97;5072465;28;45262;-79
2023/06/08 08:32:51;;;;;;;;;26.00;26.00;;;;;24.38;61.03;101270.53;5042659;28;47677;-79
2023/06/08 08:35:17;;;;;;;;;30.67;28.00;;;;;24.57;59.43;101287.53;5079407;28;53182;-78
2023/06/08 08:37:42;;;;;;;;;28.33;27.67;;;;;24.60;59.75;101280.94;5065378;28;45269;-78
2023/06/08 08:40:12;;;;;;;;;33.33;30.67;;;;;24.53;58.66;101278.00;5048885;28;55921;-78
2023/06/08 08:42:45;;;;;;;;;32.67;29.67;;;;;24.63;59.37;101281.50;5044247;28;45353;-78
2023/06/08 08:45:14;;;;;;;;;29.33;27.33;;;;;24.80;60.08;101272.53;5036475;28;45397;-78
2023/06/08 08:47:41;;;;;;;;;26.00;25.67;;;;;24.95;58.72;101275.63;5070562;28;45483;-78
2023/06/08 08:50:15;;;;;;;;;33.67;29.67;;;;;25.03;59.99;101267.56;5066106;28;45348;-78
2023/06/08 08:52:44;;;;;;;;;28.33;28.33;;;;;25.22;58.25;101272.84;5066391;28;45365;-78
2023/06/08 08:55:10;;;;;;;;;31.33;28.33;;;;;25.27;56.97;101259.69;5041689;28;45387;-78
2023/06/08 08:57:36;;;;;;;;;33.00;29.33;;;;;25.40;57.72;101262.84;5070246;28;45508;-79
2023/06/08 09:00:06;;;;;;;;;30.00;27.67;;;;;25.48;57.68;101261.22;5066772;28;45306;-78
2023/06/08 09:02:35;;;;;;;;;31.33;29.67;;;;;25.59;57.97;101253.72;5046757;28;45627;-79
2023/06/08 09:05:03;;;;;;;;;28.00;27.00;;;;;25.75;57.19;101263.84;5049351;28;45355;-78
2023/06/08 09:07:29;;;;;;;;;30.33;27.67;;;;;25.86;55.75;101255.41;5078988;28;45327;-78
2023/06/08 09:10:14;;;;;;;;;32.00;28.00;;;;;25.87;56.42;101259.84;5051679;28;46134;-79
2023/06/08 09:12:41;;;;;;;;;27.00;24.00;;;;;25.92;55.23;101255.63;5075895;28;45408;-78
2023/06/08 09:15:09;;;;;;;;;31.00;28.00;;;;;26.03;55.13;101257.22;5063416;28;45281;-78
2023/06/08 09:17:37;;;;;;;;;27.00;25.00;;;;;26.07;55.86;101242.34;5074724;28;45432;-78
2023/06/08 09:20:12;;;;;;;;;27.33;24.67;;;;;26.27;54.88;101242.97;5062851;28;45355;-79
2023/06/08 09:22:39;;;;;;;;;28.67;27.00;;;;;26.29;54.29;101247.22;5078329;28;45571;-78
2023/06/08 09:25:09;;;;;;;;;27.33;23.00;;;;;26.41;54.84;101253.19;5067795;28;45413;-78
2023/06/08 09:27:35;;;;;;;;;29.67;27.33;;;;;26.46;53.75;101233.72;5066305;28;45371;-78
2023/06/08 09:30:01;;;;;;;;;26.67;24.67;;;;;26.63;53.38;101232.75;5042891;28;45423;-79
2023/06/08 09:32:31;;;;;;;;;30.00;29.67;;;;;26.67;53.00;101231.41;5054192;28;47234;-78
2023/06/08 09:35:02;;;;;;;;;24.67;22.33;;;;;26.70;53.24;101220.22;5058939;28;45316;-79
2023/06/08 09:37:32;;;;;;;;;26.67;24.67;;;;;26.88;52.79;101237.25;5075522;28;45313;-79
2023/06/08 09:39:59;;;;;;;;;23.33;21.33;;;;;26.80;52.37;101213.63;5057481;28;45296;-78
2023/06/08 09:42:46;;;;;;;;;23.00;21.67;;;;;27.01;53.28;101239.47;5058374;28;47909;-79
2023/06/08 09:45:14;;;;;;;;;27.33;24.67;;;;;27.16;50.83;101226.94;5058582;28;45314;-78
2023/06/08 09:47:40;;;;;;;;;23.33;22.33;;;;;27.19;51.05;101232.84;5043910;28;45359;-79
2023/06/08 09:50:08;;;;;;;;;26.33;26.33;;;;;27.14;53.23;101216.22;5070365;28;45369;-78
2023/06/08 09:52:35;;;;;;;;;23.00;21.67;;;;;27.28;52.02;101217.44;5049847;28;47463;-78
2023/06/08 09:55:01;;;;;;;;;22.67;22.67;;;;;27.36;51.24;101231.84;5067883;28;45610;-78
2023/06/08 09:57:28;;;;;;;;;27.67;26.67;;;;;27.48;50.17;101228.81;5074370;28;45356;-78
2023/06/08 10:00:09;;;;;;;;;24.33;24.00;;;;;27.43;50.86;101197.56;5040481;28;45387;-78
2023/06/08 10:02:42;;;;;;;;;20.00;20.00;;;;;27.77;50.49;101218.25;5058191;28;46092;-78
2023/06/08 10:05:10;;;;;;;;;25.33;23.00;;;;;27.82;49.49;101216.69;5052267;28;45368;-79
2023/06/08 10:07:39;;;;;;;;;26.67;22.67;;;;;27.83;48.41;101217.53;5078160;28;45543;-79
2023/06/08 10:10:15;;;;;;;;;25.33;22.33;;;;;27.97;50.34;101221.41;5060389;28;45703;-78
2023/06/08 10:12:41;;;;;;;;;22.67;22.67;;;;;28.17;51.17;101214.59;5051797;28;45758;-79
2023/06/08 10:15:07;;;;;;;;;23.33;22.67;;;;;28.18;49.45;101199.94;5063144;28;45383;-78
2023/06/08 10:17:33;;;;;;;;;24.00;20.33;;;;;28.29;48.03;101205.84;5056429;28;45323;-79
2023/06/08 10:19:59;;;;;;;;;23.33;21.00;;;;;28.27;47.90;101188.03;5060552;28;45349;-78
2023/06/08 10:22:26;;;;;;;;;21.00;21.00;;;;;28.44;47.33;101198.63;5064549;28;46564;-79
2023/06/08 10:24:52;;;;;;;;;21.00;21.00;;;;;28.48;46.59;101198.25;5069354;28;45379;-79
2023/06/08 10:27:28;;;;;;;;;21.00;19.33;;;;;28.47;47.51;101207.47;5063550;28;45435;-79
2023/06/08 10:29:55;;;;;;;;;21.33;20.00;;;;;28.47;47.84;101199.31;5073941;28;45346;-78
2023/06/08 10:32:29;;;;;;;;;18.33;18.33;;;;;28.56;47.93;101198.22;5062907;28;45273;-79
2023/06/08 10:34:58;;;;;;;;;17.33;17.00;;;;;28.63;46.47;101194.59;5061537;28;45360;-79
2023/06/08 10:37:32;;;;;;;;;18.33;17.67;;;;;28.70;45.15;101186.59;5041401;28;45491;-78
2023/06/08 10:39:58;;;;;;;;;17.67;17.67;;;;;29.01;45.54;101187.38;5055671;28;45480;-78
2023/06/08 10:42:24;;;;;;;;;19.00;18.33;;;;;29.13;46.27;101179.63;5061361;28;46289;-78
2023/06/08 10:45:00;;;;;;;;;21.00;20.67;;;;;29.25;44.23;101179.06;5065935;28;45462;-79
2023/06/08 10:47:26;;;;;;;;;22.00;21.67;;;;;29.37;45.58;101187.63;5054353;28;45438;-78
2023/06/08 10:50:04;;;;;;;;;18.00;17.00;;;;;29.37;43.04;101166.66;5070576;28;45481;-79
2023/06/08 10:52:39;;;;;;;;;23.00;21.33;;;;;29.43;42.36;101168.66;5060491;28;46537;-78
2023/06/08 10:55:08;;;;;;;;;22.33;18.33;;;;;29.49;43.96;101164.31;5062013;28;45315;-78
2023/06/08 10:57:49;;;;;;;;;17.00;16.67;;;;;29.50;43.21;101162.44;5081620;28;45241;-79
2023/06/08 11:00:22;;;;;;;;;18.00;17.33;;;;;29.58;41.88;101173.28;5052664;28;45428;-79
2023/06/08 11:02:49;;;;;;;;;17.67;17.67;;;;;29.61;41.98;101162.00;5081520;28;45482;-79
2023/06/08 11:05:15;;;;;;;;;17.00;17.00;;;;;29.60;43.56;101155.69;5063500;28;45049;-78
2023/06/08 11:07:41;;;;;;;;;16.00;15.33;;;;;29.73;42.13;101157.75;5070179;28;45360;-79
2023/06/08 11:10:06;;;;;;;;;19.33;19.33;;;;;29.86;41.38;101153.38;5057571;28;45475;-79